createdAt,value
2022-08-10T00:00:51.163Z,2.55
2022-08-10T00:03:17.417Z,2.97
2022-08-10T00:05:53.292Z,2.50
2022-08-10T00:08:24.091Z,2.53
2022-08-10T00:10:50.547Z,2.88
2022-08-10T00:13:16.822Z,2.92
2022-08-10T00:15:52.283Z,3.15
2022-08-10T00:18:35.354Z,2.50
2022-08-10T00:21:02.537Z,2.88
2022-08-10T00:23:28.776Z,2.00
2022-08-10T00:25:55.023Z,2.42
2022-08-10T00:28:21.263Z,2.35
2022-08-10T00:30:47.520Z,2.22
2022-08-10T00:33:13.789Z,2.03
2022-08-10T00:35:40.033Z,2.53
2022-08-10T00:38:06.261Z,2.60
2022-08-10T00:40:36.886Z,2.28
2022-08-10T00:43:04.234Z,2.70
2022-08-10T00:45:30.504Z,3.28
2022-08-10T00:47:56.777Z,2.75
2022-08-10T00:50:23.026Z,2.17
2022-08-10T00:52:49.254Z,3.13
2022-08-10T00:55:15.503Z,2.83
2022-08-10T00:57:41.737Z,2.90
2022-08-10T01:00:08.018Z,3.35
2022-08-10T01:02:34.561Z,2.42
2022-08-10T01:05:02.358Z,2.55
2022-08-10T01:07:28.972Z,2.20
2022-08-10T01:09:55.695Z,3.10
2022-08-10T01:12:37.844Z,2.58
2022-08-10T01:15:06.420Z,2.85
2022-08-10T01:17:49.985Z,2.92
2022-08-10T01:20:30.352Z,2.63
2022-08-10T01:22:57.368Z,2.47
2022-08-10T01:25:23.595Z,2.85
2022-08-10T01:27:49.828Z,2.72
2022-08-10T01:30:16.069Z,3.17
2022-08-10T01:32:42.303Z,2.88
2022-08-10T01:35:08.567Z,3.78
2022-08-10T01:37:36.380Z,3.35
2022-08-10T01:40:02.644Z,2.85
2022-08-10T01:42:28.870Z,3.10
2022-08-10T01:44:55.125Z,2.78
2022-08-10T01:47:22.591Z,2.90
2022-08-10T01:49:49.742Z,3.22
2022-08-10T01:52:18.309Z,4.03
2022-08-10T01:54:44.625Z,3.08
2022-08-10T01:57:10.889Z,3.05
2022-08-10T01:59:37.164Z,3.20
2022-08-10T02:02:03.413Z,2.85
2022-08-10T02:04:29.636Z,3.55
2022-08-10T02:06:55.893Z,3.28
2022-08-10T02:09:22.149Z,3.60
2022-08-10T02:12:06.346Z,2.58
2022-08-10T02:14:34.484Z,2.53
2022-08-10T02:17:01.092Z,4.55
2022-08-10T02:19:27.327Z,3.65
2022-08-10T02:22:37.954Z,2.58
2022-08-10T02:24:39.856Z,2.30
2022-08-10T02:27:06.110Z,3.53
2022-08-10T02:29:32.375Z,3.40
2022-08-10T02:31:58.618Z,4.30
2022-08-10T02:34:26.100Z,2.92
2022-08-10T02:36:52.331Z,3.33
2022-08-10T02:39:18.654Z,3.38
2022-08-10T02:45:03.203Z,3.15
2022-08-10T02:45:21.102Z,3.08
2022-08-10T02:47:17.406Z,3.50
2022-08-10T02:49:43.637Z,4.80
2022-08-10T02:52:09.882Z,4.20
2022-08-10T02:54:36.117Z,4.15
2022-08-10T02:57:02.345Z,3.15
2022-08-10T02:59:28.564Z,3.38
2022-08-10T03:02:06.302Z,3.83
2022-08-10T03:04:55.418Z,5.88
2022-08-10T03:07:18.773Z,3.42
2022-08-10T03:10:04.971Z,4.43
2022-08-10T03:12:39.616Z,3.30
2022-08-10T03:15:05.843Z,3.67
2022-08-10T03:17:32.095Z,3.30
2022-08-10T03:20:34.706Z,4.45
2022-08-10T03:22:44.570Z,3.22
2022-08-10T03:25:10.795Z,3.47
2022-08-10T03:27:37.080Z,4.57
2022-08-10T03:30:28.597Z,2.92
2022-08-10T03:32:49.531Z,3.83
2022-08-10T03:35:15.753Z,2.90
2022-08-10T03:37:41.980Z,4.88
2022-08-10T03:40:08.178Z,3.50
2022-08-10T03:42:34.617Z,3.08
2022-08-10T03:45:00.926Z,3.25
2022-08-10T03:47:27.208Z,4.50
2022-08-10T03:49:53.437Z,3.80
2022-08-10T03:52:19.720Z,4.38
2022-08-10T03:54:45.973Z,5.22
2022-08-10T03:57:12.229Z,3.45
2022-08-10T03:59:38.452Z,3.55
2022-08-10T04:02:45.831Z,5.43
2022-08-10T04:04:50.906Z,3.58
2022-08-10T04:07:17.183Z,3.78
2022-08-10T04:09:54.706Z,4.60
2022-08-10T04:12:22.526Z,4.30
2022-08-10T04:14:51.218Z,4.57
2022-08-10T04:17:18.507Z,4.45
2022-08-10T04:20:04.769Z,4.07
2022-08-10T04:22:31.024Z,3.85
2022-08-10T04:24:57.259Z,4.07
2022-08-10T04:27:23.520Z,3.60
2022-08-10T04:29:49.747Z,4.15
2022-08-10T04:32:16.004Z,4.22
2022-08-10T04:34:42.364Z,4.57
2022-08-10T04:37:09.343Z,5.95
2022-08-10T04:39:35.748Z,3.60
2022-08-10T04:42:02.084Z,5.07
2022-08-10T04:44:28.377Z,3.95
2022-08-10T04:46:58.512Z,4.03
2022-08-10T04:49:53.973Z,4.55
2022-08-10T04:52:12.074Z,4.75
2022-08-10T04:54:38.300Z,4.43
2022-08-10T04:57:04.541Z,4.15
2022-08-10T04:59:30.765Z,4.18
2022-08-10T05:02:30.668Z,5.03
2022-08-10T05:04:43.217Z,4.60
2022-08-10T05:07:09.486Z,5.05
2022-08-10T05:10:02.394Z,4.70
2022-08-10T05:12:21.928Z,4.50
2022-08-10T05:14:48.183Z,5.03
2022-08-10T05:17:14.422Z,4.32
2022-08-10T05:20:03.608Z,4.30
2022-08-10T05:22:26.930Z,4.35
2022-08-10T05:24:53.228Z,3.95
2022-08-10T05:27:19.479Z,4.63
2022-08-10T05:29:45.713Z,3.78
2022-08-10T05:32:28.974Z,4.30
2022-08-10T05:34:55.226Z,3.72
2022-08-10T05:38:09.174Z,3.35
2022-08-10T05:40:07.698Z,4.78
2022-08-10T05:42:34.070Z,4.60
2022-08-10T05:45:00.413Z,3.80
2022-08-10T05:47:26.651Z,4.68
2022-08-10T05:49:55.364Z,4.18
2022-08-10T05:52:21.596Z,4.30
2022-08-10T05:54:47.829Z,4.05
2022-08-10T05:57:14.075Z,5.82
2022-08-10T06:00:11.074Z,4.13
2022-08-10T06:02:31.648Z,4.85
2022-08-10T06:05:01.138Z,3.80
2022-08-10T06:07:27.471Z,3.72
2022-08-10T06:09:59.191Z,4.45
2022-08-10T06:12:29.525Z,4.30
2022-08-10T06:14:59.523Z,3.53
2022-08-10T06:17:26.405Z,4.95
2022-08-10T06:19:52.687Z,4.22
2022-08-10T06:22:18.950Z,3.90
2022-08-10T06:25:12.269Z,3.80
2022-08-10T06:27:34.637Z,4.05
2022-08-10T06:32:27.540Z,3.70
2022-08-10T06:34:53.828Z,3.85
2022-08-10T06:37:20.101Z,7.57
2022-08-10T06:39:46.390Z,3.50
2022-08-10T06:42:14.979Z,3.55
2022-08-10T06:44:43.682Z,4.35
2022-08-10T06:47:09.926Z,4.07
2022-08-10T06:49:36.761Z,4.80
2022-08-10T06:52:03.003Z,4.38
2022-08-10T06:54:29.231Z,4.40
2022-08-10T06:57:16.530Z,3.67
2022-08-10T06:59:41.679Z,4.07
2022-08-10T07:02:08.312Z,2.72
2022-08-10T07:04:34.588Z,4.68
2022-08-10T07:07:00.938Z,3.35
2022-08-10T07:09:27.224Z,5.00
2022-08-10T07:11:54.737Z,4.28
2022-08-10T07:14:24.395Z,3.67
2022-08-10T07:16:50.706Z,3.28
2022-08-10T07:19:17.109Z,3.60
2022-08-10T07:21:43.339Z,4.00
2022-08-10T07:24:09.573Z,3.72
2022-08-10T07:26:35.811Z,3.42
2022-08-10T07:29:02.055Z,3.17
2022-08-10T07:31:54.607Z,3.00
2022-08-10T07:34:21.872Z,2.70
2022-08-10T07:36:55.881Z,3.63
2022-08-10T07:39:57.978Z,3.00
2022-08-10T07:42:08.446Z,3.80
2022-08-10T07:44:34.675Z,3.50
2022-08-10T07:47:00.995Z,5.25
2022-08-10T07:49:27.204Z,3.50
2022-08-10T07:51:54.681Z,2.53
2022-08-10T07:54:21.340Z,2.92
2022-08-10T07:56:49.312Z,3.22
2022-08-10T07:59:15.804Z,3.63
2022-08-10T08:01:42.101Z,3.28
2022-08-10T08:04:11.378Z,2.70
2022-08-10T08:06:38.306Z,3.13
2022-08-10T08:09:04.523Z,3.92
2022-08-10T08:11:30.781Z,3.08
2022-08-10T08:13:57.018Z,3.47
2022-08-10T08:16:23.266Z,2.92
2022-08-10T08:19:03.897Z,2.55
2022-08-10T08:24:08.724Z,2.85
2022-08-10T08:24:33.362Z,3.25
2022-08-10T08:27:00.447Z,2.95
2022-08-10T08:29:26.700Z,2.67
2022-08-10T08:31:54.551Z,2.15
2022-08-10T08:34:28.478Z,3.50
2022-08-10T08:36:58.883Z,2.85
2022-08-10T08:39:25.992Z,3.08
2022-08-10T08:41:52.450Z,3.47
2022-08-10T08:44:18.725Z,2.55
2022-08-10T08:46:45.003Z,2.65
2022-08-10T08:49:11.266Z,2.10
2022-08-10T08:52:09.199Z,1.88
2022-08-10T08:54:23.836Z,2.03
2022-08-10T08:56:50.531Z,2.15
2022-08-10T08:59:16.851Z,2.03
2022-08-10T09:01:43.247Z,2.35
2022-08-10T09:04:19.709Z,2.50
2022-08-10T09:06:47.556Z,1.77
2022-08-10T09:09:14.897Z,1.95
2022-08-10T09:11:41.415Z,1.92
2022-08-10T09:14:07.664Z,2.03
2022-08-10T09:16:33.945Z,2.58
2022-08-10T09:19:00.188Z,2.67
2022-08-10T09:21:26.429Z,1.98
2022-08-10T09:24:04.118Z,1.77
2022-08-10T09:26:32.426Z,2.22
2022-08-10T09:29:11.949Z,2.00
2022-08-10T09:31:39.615Z,1.75
2022-08-10T09:36:20.699Z,2.47
2022-08-10T09:36:52.161Z,1.30
2022-08-10T09:40:12.375Z,1.98
2022-08-10T09:42:04.665Z,1.40
2022-08-10T09:44:33.744Z,1.70
2022-08-10T09:47:20.003Z,1.17
2022-08-10T09:49:55.032Z,1.90
2022-08-10T09:52:22.590Z,1.88
2022-08-10T09:54:48.915Z,2.17
2022-08-10T10:00:02.757Z,2.28
2022-08-10T10:02:29.347Z,1.67
2022-08-10T10:04:55.606Z,1.60
2022-08-10T10:07:21.838Z,2.83
2022-08-10T10:09:48.088Z,1.88
2022-08-10T10:12:14.311Z,1.42
2022-08-10T10:14:40.633Z,1.65
2022-08-10T10:17:06.955Z,1.83
2022-08-10T10:19:37.216Z,1.83
2022-08-10T10:22:06.235Z,1.98
2022-08-10T10:24:32.493Z,1.17
2022-08-10T10:26:58.805Z,1.50
2022-08-10T10:29:58.018Z,1.92
2022-08-10T10:32:12.730Z,1.23
2022-08-10T10:34:38.994Z,1.95
2022-08-10T10:37:05.380Z,1.98
2022-08-10T10:39:31.926Z,2.22
2022-08-10T10:42:04.473Z,1.83
2022-08-10T10:44:31.206Z,1.30
2022-08-10T10:46:57.756Z,1.10
2022-08-10T10:49:23.975Z,1.35
2022-08-10T10:51:50.243Z,1.25
2022-08-10T10:54:16.489Z,1.52
2022-08-10T10:56:42.731Z,1.88
2022-08-10T10:59:33.486Z,1.45
2022-08-10T11:01:55.223Z,2.15
2022-08-10T11:04:21.584Z,1.30
2022-08-10T11:06:47.811Z,0.98
2022-08-10T11:10:08.802Z,1.67
2022-08-10T11:12:02.876Z,1.05
2022-08-10T11:14:31.043Z,1.13
2022-08-10T11:16:58.570Z,1.48
2022-08-10T11:19:26.562Z,1.38
2022-08-10T11:22:16.328Z,1.55
2022-08-10T11:24:49.831Z,1.10
2022-08-10T11:27:21.822Z,1.38
2022-08-10T11:29:49.704Z,1.63
2022-08-10T11:32:21.438Z,1.50
2022-08-10T11:35:11.057Z,1.55
2022-08-10T11:38:28.474Z,1.60
2022-08-10T11:40:20.327Z,2.10
2022-08-10T11:42:46.572Z,1.38
2022-08-10T11:45:12.844Z,1.63
2022-08-10T11:47:39.075Z,1.95
2022-08-10T11:50:06.439Z,1.58
2022-08-10T11:52:32.727Z,1.23
2022-08-10T11:54:59.022Z,2.03
2022-08-10T11:57:25.249Z,1.65
2022-08-10T12:00:11.495Z,1.73
2022-08-10T12:02:37.903Z,1.60
2022-08-10T12:05:04.292Z,1.58
2022-08-10T12:10:01.923Z,1.95
2022-08-10T12:10:16.762Z,1.75
2022-08-10T12:12:42.997Z,1.67
2022-08-10T12:15:09.260Z,1.70
2022-08-10T12:17:35.505Z,1.38
2022-08-10T12:20:03.642Z,1.35
2022-08-10T12:22:30.179Z,1.73
2022-08-10T12:24:57.891Z,1.55
2022-08-10T12:27:24.117Z,1.45
2022-08-10T12:29:50.354Z,1.80
2022-08-10T12:32:16.584Z,1.52
2022-08-10T12:34:51.144Z,1.90
2022-08-10T12:37:17.433Z,1.33
2022-08-10T12:39:43.678Z,1.35
2022-08-10T12:42:09.974Z,2.25
2022-08-10T12:44:42.142Z,1.20
2022-08-10T12:47:14.508Z,1.83
2022-08-10T12:49:41.052Z,1.52
2022-08-10T12:52:27.308Z,1.63
2022-08-10T12:54:53.626Z,1.55
2022-08-10T12:57:19.837Z,1.65
2022-08-10T12:59:46.091Z,2.33
2022-08-10T13:02:12.330Z,1.50
2022-08-10T13:04:38.583Z,1.10
2022-08-10T13:07:04.822Z,1.75
2022-08-10T13:09:31.088Z,1.95
2022-08-10T13:12:44.239Z,2.08
2022-08-10T13:14:43.558Z,1.65
2022-08-10T13:17:09.785Z,1.90
2022-08-10T13:19:38.644Z,1.65
2022-08-10T13:22:21.790Z,1.67
2022-08-10T13:24:48.054Z,2.22
2022-08-10T13:27:26.158Z,1.48
2022-08-10T13:29:53.556Z,1.60
2022-08-10T13:32:23.976Z,1.30
2022-08-10T13:34:50.213Z,1.13
2022-08-10T13:37:16.442Z,2.22
2022-08-10T13:39:57.991Z,1.73
2022-08-10T13:42:31.932Z,1.48
2022-08-10T13:44:58.965Z,1.67
2022-08-10T13:47:25.310Z,1.30
2022-08-10T13:49:51.628Z,1.40
2022-08-10T13:52:17.865Z,1.23
2022-08-10T13:54:44.208Z,2.15
2022-08-10T13:57:10.554Z,1.25
2022-08-10T14:00:34.404Z,1.30
2022-08-10T14:02:23.286Z,1.42
2022-08-10T14:04:49.603Z,1.83
2022-08-10T14:07:15.867Z,1.38
2022-08-10T14:09:42.156Z,1.80
2022-08-10T14:12:08.458Z,1.77
2022-08-10T14:14:34.784Z,1.90
2022-08-10T14:17:01.117Z,2.17
2022-08-10T14:19:29.663Z,1.98
2022-08-10T14:21:56.017Z,1.55
2022-08-10T14:24:22.514Z,1.70
2022-08-10T14:26:48.900Z,1.65
2022-08-10T14:29:18.977Z,1.98
2022-08-10T14:32:00.651Z,1.08
2022-08-10T14:36:15.970Z,1.73
2022-08-10T14:37:14.920Z,1.80
2022-08-10T14:39:41.310Z,1.33
2022-08-10T14:42:20.083Z,1.23
2022-08-10T14:44:51.996Z,1.25
2022-08-10T14:47:52.559Z,1.15
2022-08-10T14:50:05.078Z,1.25
2022-08-10T14:52:31.591Z,2.40
2022-08-10T14:54:58.053Z,1.08
2022-08-10T14:57:24.519Z,2.45
2022-08-10T15:00:29.422Z,1.15
2022-08-10T15:02:58.222Z,1.60
2022-08-10T15:05:24.696Z,3.10
2022-08-10T15:08:02.225Z,1.92
2022-08-10T15:10:28.801Z,1.50
2022-08-10T15:12:55.102Z,1.10
2022-08-10T15:15:27.712Z,1.70
2022-08-10T15:17:54.739Z,1.80
2022-08-10T15:20:24.000Z,2.10
2022-08-10T15:22:50.936Z,1.60
2022-08-10T15:25:18.865Z,1.20
2022-08-10T15:27:53.839Z,3.22
2022-08-10T15:30:21.511Z,1.85
2022-08-10T15:32:47.796Z,1.85
2022-08-10T15:35:14.172Z,1.80
2022-08-10T15:37:43.725Z,1.27
2022-08-10T15:40:24.148Z,1.95
2022-08-10T15:42:54.456Z,1.40
2022-08-10T15:45:24.761Z,1.23
2022-08-10T15:47:51.054Z,1.63
2022-08-10T15:50:17.396Z,1.45
2022-08-10T15:53:01.936Z,2.17
2022-08-10T15:55:44.108Z,2.00
2022-08-10T15:58:11.753Z,2.00
2022-08-10T16:00:38.191Z,1.92
2022-08-10T16:03:04.605Z,2.22
2022-08-10T16:06:00.123Z,1.77
2022-08-10T16:08:17.282Z,1.13
2022-08-10T16:10:53.590Z,1.50
2022-08-10T16:13:59.591Z,1.88
2022-08-10T16:16:06.474Z,2.33
2022-08-10T16:18:32.786Z,1.38
2022-08-10T16:20:59.106Z,2.00
2022-08-10T16:23:25.354Z,2.22
2022-08-10T16:25:58.476Z,1.73
2022-08-10T16:28:28.194Z,1.77
2022-08-10T16:30:54.461Z,1.48
2022-08-10T16:33:20.697Z,1.40
2022-08-10T16:35:49.903Z,2.25
2022-08-10T16:38:16.391Z,2.33
2022-08-10T16:40:42.877Z,1.70
2022-08-10T16:43:09.250Z,1.60
2022-08-10T16:45:35.534Z,1.88
2022-08-10T16:48:01.967Z,1.27
2022-08-10T16:50:28.283Z,1.63
2022-08-10T16:52:54.515Z,1.58
2022-08-10T16:55:24.283Z,1.80
2022-08-10T16:58:07.159Z,1.80
2022-08-10T17:00:33.396Z,1.20
2022-08-10T17:02:59.972Z,1.88
2022-08-10T17:06:09.856Z,2.13
2022-08-10T17:08:12.539Z,2.20
2022-08-10T17:10:38.866Z,1.75
2022-08-10T17:13:05.159Z,1.58
2022-08-10T17:15:31.457Z,1.63
2022-08-10T17:17:57.764Z,2.55
2022-08-10T17:20:30.636Z,1.70
2022-08-10T17:22:58.532Z,1.70
2022-08-10T17:25:24.968Z,2.15
2022-08-10T17:28:11.263Z,1.90
2022-08-10T17:30:57.519Z,1.80
2022-08-10T17:33:24.813Z,2.30
2022-08-10T17:35:51.268Z,2.03
2022-08-10T17:38:17.494Z,1.80
2022-08-10T17:40:45.079Z,1.63
2022-08-10T17:43:11.379Z,2.20
2022-08-10T17:45:48.146Z,1.50
2022-08-10T17:48:15.619Z,8.35
2022-08-10T17:50:41.902Z,1.50
2022-08-10T17:53:08.262Z,2.30
2022-08-10T17:55:34.498Z,2.17
2022-08-10T17:58:02.222Z,3.63
2022-08-10T18:00:28.766Z,2.13
2022-08-10T18:02:55.240Z,1.77
2022-08-10T18:05:21.463Z,1.48
2022-08-10T18:07:47.920Z,1.83
2022-08-10T18:10:14.209Z,1.30
2022-08-10T18:12:40.488Z,1.77
2022-08-10T18:15:12.366Z,2.30
2022-08-10T18:17:40.355Z,2.30
2022-08-10T18:20:06.800Z,1.50
2022-08-10T18:22:33.098Z,2.15
2022-08-10T18:24:59.388Z,1.52
2022-08-10T18:27:46.639Z,2.53
2022-08-10T18:30:12.172Z,1.92
2022-08-10T18:32:38.493Z,2.05
2022-08-10T18:35:04.785Z,2.40
2022-08-10T18:37:31.222Z,1.50
2022-08-10T18:39:57.597Z,2.40
2022-08-10T18:42:23.950Z,2.30
2022-08-10T18:44:50.156Z,1.80
2022-08-10T18:47:16.553Z,1.83
2022-08-10T18:49:42.857Z,1.52
2022-08-10T18:52:09.150Z,2.38
2022-08-10T18:54:44.348Z,3.08
2022-08-10T18:57:11.466Z,2.50
2022-08-10T18:59:37.806Z,2.67
2022-08-10T19:02:04.080Z,2.35
2022-08-10T19:04:30.533Z,2.40
2022-08-10T19:06:56.824Z,2.80
2022-08-10T19:09:45.996Z,2.45
2022-08-10T19:12:29.566Z,2.50
2022-08-10T19:14:55.658Z,2.10
2022-08-10T19:17:21.980Z,2.65
2022-08-10T19:19:48.399Z,2.80
2022-08-10T19:22:14.639Z,2.30
2022-08-10T19:24:40.869Z,2.40
2022-08-10T19:27:07.137Z,3.88
2022-08-10T19:30:09.480Z,2.60
2022-08-10T19:32:19.624Z,2.88
2022-08-10T19:34:45.843Z,3.45
2022-08-10T19:37:15.522Z,2.65
2022-08-10T19:39:42.189Z,2.25
2022-08-10T19:42:17.573Z,3.00
2022-08-10T19:44:43.836Z,3.28
2022-08-10T19:47:10.062Z,3.00
2022-08-10T19:49:39.966Z,3.40
2022-08-10T19:52:10.987Z,3.33
2022-08-10T19:54:37.967Z,3.20
2022-08-10T19:57:04.210Z,3.67
2022-08-10T20:00:16.276Z,3.58
2022-08-10T20:02:16.664Z,2.70
2022-08-10T20:04:42.942Z,2.40
2022-08-10T20:07:09.195Z,2.90
2022-08-10T20:09:35.433Z,2.50
2022-08-10T20:12:01.632Z,3.22
2022-08-10T20:14:27.862Z,2.95
2022-08-10T20:16:55.892Z,2.50
2022-08-10T20:19:22.619Z,2.78
2022-08-10T20:21:48.847Z,3.38
2022-08-10T20:24:15.132Z,4.28
2022-08-10T20:26:41.367Z,2.97
2022-08-10T20:29:07.616Z,3.13
2022-08-10T20:31:33.845Z,2.97
2022-08-10T20:34:01.677Z,3.03
2022-08-10T20:36:28.093Z,2.75
2022-08-10T20:38:54.385Z,3.58
2022-08-10T20:41:20.914Z,2.38
2022-08-10T20:43:47.141Z,2.80
2022-08-10T20:46:13.333Z,1.90
2022-08-10T20:48:39.598Z,3.08
2022-08-10T20:51:05.840Z,2.63
2022-08-10T20:53:32.199Z,2.80
2022-08-10T20:55:58.477Z,2.85
2022-08-10T20:58:24.702Z,2.45
2022-08-10T21:00:50.984Z,2.95
2022-08-10T21:03:22.153Z,2.55
2022-08-10T21:05:51.600Z,2.33
2022-08-10T21:08:19.130Z,2.35
2022-08-10T21:10:45.337Z,2.63
2022-08-10T21:13:11.575Z,1.95
2022-08-10T21:15:41.978Z,2.72
2022-08-10T21:18:09.023Z,2.80
2022-08-10T21:20:35.262Z,2.35
2022-08-10T21:23:05.431Z,2.88
2022-08-10T21:25:32.146Z,2.15
2022-08-10T21:27:59.418Z,1.98
2022-08-10T21:30:25.645Z,2.33
2022-08-10T21:32:53.846Z,1.90
2022-08-10T21:35:24.261Z,1.90
2022-08-10T21:38:04.213Z,2.05
2022-08-10T21:40:34.632Z,2.30
2022-08-10T21:43:01.849Z,2.47
2022-08-10T21:45:58.720Z,2.58
2022-08-10T21:51:00.529Z,1.90
2022-08-10T21:53:44.731Z,1.95
2022-08-10T21:56:11.661Z,2.13
2022-08-10T21:58:40.642Z,2.03
2022-08-10T22:01:09.126Z,1.90
2022-08-10T22:03:39.962Z,2.38
2022-08-10T22:06:06.696Z,2.65
2022-08-10T22:08:32.915Z,2.17
2022-08-10T22:10:59.123Z,2.53
2022-08-10T22:13:25.695Z,1.98
2022-08-10T22:16:09.778Z,2.10
2022-08-10T22:18:37.559Z,1.77
2022-08-10T22:21:11.544Z,2.22
2022-08-10T22:23:37.824Z,2.05
2022-08-10T22:26:06.806Z,1.63
2022-08-10T22:28:33.043Z,1.70
2022-08-10T22:31:27.487Z,1.65
2022-08-10T22:31:28.224Z,3.15
2022-08-10T22:33:45.468Z,2.35
2022-08-10T22:36:11.681Z,2.60
2022-08-10T22:38:37.934Z,1.88
2022-08-10T22:41:04.176Z,1.90
2022-08-10T22:43:35.291Z,2.05
2022-08-10T22:46:02.144Z,2.13
2022-08-10T22:48:28.366Z,2.53
2022-08-10T22:50:54.575Z,1.88
2022-08-10T22:53:21.292Z,2.60
2022-08-10T22:55:47.638Z,2.75
2022-08-10T22:58:13.889Z,1.80
2022-08-10T23:00:40.120Z,2.10
2022-08-10T23:03:06.490Z,3.00
2022-08-10T23:05:32.753Z,3.05
2022-08-10T23:07:58.979Z,2.85
2022-08-10T23:10:25.191Z,2.67
2022-08-10T23:12:51.457Z,2.95
2022-08-10T23:15:17.685Z,2.08
2022-08-10T23:18:02.072Z,3.08
2022-08-10T23:20:28.842Z,1.85
2022-08-10T23:22:55.071Z,2.28
2022-08-10T23:25:21.305Z,2.22
2022-08-10T23:30:23.683Z,2.10
2022-08-10T23:32:51.711Z,2.38
2022-08-10T23:36:05.548Z,2.20
2022-08-10T23:38:04.168Z,2.03
2022-08-10T23:40:30.420Z,1.92
2022-08-10T23:42:56.767Z,1.98
2022-08-10T23:45:23.004Z,2.03
2022-08-10T23:47:49.239Z,2.03
2022-08-10T23:50:15.471Z,2.22
2022-08-10T23:52:41.709Z,1.90
2022-08-10T23:55:07.940Z,4.25
2022-08-10T23:57:34.183Z,2.38
